sensor_id;sensor_type;location;lat;lon;timestamp;P1;durP1;ratioP1;P2;durP2;ratioP2
61590;SDS011;57639;52.410;-1.966;2023-06-19T00:01:33;3.90;;;3.40;;
61590;SDS011;57639;52.410;-1.966;2023-06-19T00:04:39;4.43;;;3.40;;
61590;SDS011;57639;52.410;-1.966;2023-06-19T00:07:49;3.75;;;3.25;;
61590;SDS011;57639;52.410;-1.966;2023-06-19T00:10:55;3.92;;;3.50;;
61590;SDS011;57639;52.410;-1.966;2023-06-19T00:14:01;4.13;;;3.38;;
61590;SDS011;57639;52.410;-1.966;2023-06-19T00:17:08;3.85;;;3.45;;
61590;SDS011;57639;52.410;-1.966;2023-06-19T00:20:14;4.55;;;3.70;;
61590;SDS011;57639;52.410;-1.966;2023-06-19T00:23:23;3.83;;;3.40;;
61590;SDS011;57639;52.410;-1.966;2023-06-19T00:26:30;4.50;;;3.17;;
61590;SDS011;57639;52.410;-1.966;2023-06-19T00:29:36;4.55;;;3.50;;
61590;SDS011;57639;52.410;-1.966;2023-06-19T00:32:42;4.50;;;3.63;;
61590;SDS011;57639;52.410;-1.966;2023-06-19T00:35:52;3.72;;;3.13;;
61590;SDS011;57639;52.410;-1.966;2023-06-19T00:39:02;3.78;;;3.22;;
61590;SDS011;57639;52.410;-1.966;2023-06-19T00:42:09;3.38;;;2.95;;
61590;SDS011;57639;52.410;-1.966;2023-06-19T00:45:15;4.68;;;3.35;;
61590;SDS011;57639;52.410;-1.966;2023-06-19T00:48:24;3.70;;;3.20;;
61590;SDS011;57639;52.410;-1.966;2023-06-19T00:51:33;3.67;;;2.90;;
61590;SDS011;57639;52.410;-1.966;2023-06-19T00:54:42;3.45;;;3.13;;
61590;SDS011;57639;52.410;-1.966;2023-06-19T00:57:48;3.70;;;3.10;;
61590;SDS011;57639;52.410;-1.966;2023-06-19T01:00:56;4.20;;;3.17;;
61590;SDS011;57639;52.410;-1.966;2023-06-19T01:04:03;4.95;;;3.42;;
61590;SDS011;57639;52.410;-1.966;2023-06-19T01:07:09;4.25;;;3.30;;
61590;SDS011;57639;52.410;-1.966;2023-06-19T01:10:26;3.85;;;3.40;;
61590;SDS011;57639;52.410;-1.966;2023-06-19T01:13:38;3.42;;;3.03;;
61590;SDS011;57639;52.410;-1.966;2023-06-19T01:16:50;4.05;;;3.15;;
61590;SDS011;57639;52.410;-1.966;2023-06-19T01:19:57;3.58;;;3.17;;
61590;SDS011;57639;52.410;-1.966;2023-06-19T01:23:14;3.42;;;2.95;;
61590;SDS011;57639;52.410;-1.966;2023-06-19T01:26:21;4.40;;;3.30;;
61590;SDS011;57639;52.410;-1.966;2023-06-19T01:29:30;4.67;;;3.37;;
61590;SDS011;57639;52.410;-1.966;2023-06-19T01:32:38;4.03;;;3.05;;
61590;SDS011;57639;52.410;-1.966;2023-06-19T01:35:50;4.57;;;3.22;;
61590;SDS011;57639;52.410;-1.966;2023-06-19T01:39:00;3.78;;;3.38;;
61590;SDS011;57639;52.410;-1.966;2023-06-19T01:42:06;3.45;;;2.92;;
61590;SDS011;57639;52.410;-1.966;2023-06-19T01:45:14;3.28;;;2.97;;
61590;SDS011;57639;52.410;-1.966;2023-06-19T01:48:20;4.55;;;3.22;;
61590;SDS011;57639;52.410;-1.966;2023-06-19T01:51:26;4.22;;;3.25;;
61590;SDS011;57639;52.410;-1.966;2023-06-19T01:54:36;3.92;;;3.13;;
61590;SDS011;57639;52.410;-1.966;2023-06-19T01:57:47;3.80;;;3.20;;
61590;SDS011;57639;52.410;-1.966;2023-06-19T02:00:56;4.00;;;2.97;;
61590;SDS011;57639;52.410;-1.966;2023-06-19T02:04:02;4.32;;;3.03;;
61590;SDS011;57639;52.410;-1.966;2023-06-19T02:07:08;3.67;;;2.95;;
61590;SDS011;57639;52.410;-1.966;2023-06-19T02:10:17;3.65;;;2.80;;
61590;SDS011;57639;52.410;-1.966;2023-06-19T02:13:23;3.97;;;3.03;;
61590;SDS011;57639;52.410;-1.966;2023-06-19T02:16:30;3.33;;;3.03;;
61590;SDS011;57639;52.410;-1.966;2023-06-19T02:19:36;3.97;;;3.05;;
61590;SDS011;57639;52.410;-1.966;2023-06-19T02:22:42;3.90;;;3.05;;
61590;SDS011;57639;52.410;-1.966;2023-06-19T02:25:51;4.10;;;3.33;;
61590;SDS011;57639;52.410;-1.966;2023-06-19T02:28:57;3.60;;;2.97;;
61590;SDS011;57639;52.410;-1.966;2023-06-19T02:32:04;3.35;;;2.78;;
61590;SDS011;57639;52.410;-1.966;2023-06-19T02:35:11;4.30;;;3.55;;
61590;SDS011;57639;52.410;-1.966;2023-06-19T02:38:20;3.45;;;3.00;;
61590;SDS011;57639;52.410;-1.966;2023-06-19T02:41:29;3.95;;;3.15;;
61590;SDS011;57639;52.410;-1.966;2023-06-19T02:44:35;3.87;;;3.07;;
61590;SDS011;57639;52.410;-1.966;2023-06-19T02:47:42;3.30;;;3.00;;
61590;SDS011;57639;52.410;-1.966;2023-06-19T02:50:48;3.47;;;3.15;;
61590;SDS011;57639;52.410;-1.966;2023-06-19T02:53:55;3.72;;;3.17;;
61590;SDS011;57639;52.410;-1.966;2023-06-19T02:57:04;4.63;;;3.03;;
61590;SDS011;57639;52.410;-1.966;2023-06-19T03:00:12;3.83;;;3.25;;
61590;SDS011;57639;52.410;-1.966;2023-06-19T03:03:19;3.63;;;3.33;;
61590;SDS011;57639;52.410;-1.966;2023-06-19T03:06:25;4.22;;;3.38;;
61590;SDS011;57639;52.410;-1.966;2023-06-19T03:09:33;3.83;;;3.13;;
61590;SDS011;57639;52.410;-1.966;2023-06-19T03:12:42;4.65;;;3.10;;
61590;SDS011;57639;52.410;-1.966;2023-06-19T03:15:48;5.68;;;3.20;;
61590;SDS011;57639;52.410;-1.966;2023-06-19T03:18:55;3.30;;;3.00;;
61590;SDS011;57639;52.410;-1.966;2023-06-19T03:22:01;3.38;;;3.00;;
61590;SDS011;57639;52.410;-1.966;2023-06-19T03:25:08;3.60;;;2.95;;
61590;SDS011;57639;52.410;-1.966;2023-06-19T03:28:17;5.57;;;3.05;;
61590;SDS011;57639;52.410;-1.966;2023-06-19T03:31:23;3.80;;;3.17;;
61590;SDS011;57639;52.410;-1.966;2023-06-19T03:34:29;5.05;;;3.17;;
61590;SDS011;57639;52.410;-1.966;2023-06-19T03:37:36;4.32;;;3.10;;
61590;SDS011;57639;52.410;-1.966;2023-06-19T03:40:42;5.07;;;3.28;;
61590;SDS011;57639;52.410;-1.966;2023-06-19T03:43:53;4.97;;;3.03;;
61590;SDS011;57639;52.410;-1.966;2023-06-19T03:46:59;3.63;;;3.00;;
61590;SDS011;57639;52.410;-1.966;2023-06-19T03:50:06;3.90;;;3.25;;
61590;SDS011;57639;52.410;-1.966;2023-06-19T03:53:13;4.28;;;3.10;;
61590;SDS011;57639;52.410;-1.966;2023-06-19T03:56:19;4.20;;;3.22;;
61590;SDS011;57639;52.410;-1.966;2023-06-19T03:59:29;4.80;;;3.20;;
61590;SDS011;57639;52.410;-1.966;2023-06-19T04:02:35;4.43;;;2.90;;
61590;SDS011;57639;52.410;-1.966;2023-06-19T04:05:41;4.80;;;2.80;;
61590;SDS011;57639;52.410;-1.966;2023-06-19T04:08:47;2.97;;;2.67;;
61590;SDS011;57639;52.410;-1.966;2023-06-19T04:11:54;3.65;;;3.10;;
61590;SDS011;57639;52.410;-1.966;2023-06-19T04:15:03;3.85;;;3.00;;
61590;SDS011;57639;52.410;-1.966;2023-06-19T04:18:10;3.95;;;3.10;;
61590;SDS011;57639;52.410;-1.966;2023-06-19T04:21:16;4.70;;;3.10;;
61590;SDS011;57639;52.410;-1.966;2023-06-19T04:24:22;3.20;;;2.90;;
61590;SDS011;57639;52.410;-1.966;2023-06-19T04:27:29;3.00;;;2.70;;
61590;SDS011;57639;52.410;-1.966;2023-06-19T04:30:38;3.50;;;3.05;;
61590;SDS011;57639;52.410;-1.966;2023-06-19T04:33:45;3.80;;;3.22;;
61590;SDS011;57639;52.410;-1.966;2023-06-19T04:36:53;3.28;;;2.83;;
61590;SDS011;57639;52.410;-1.966;2023-06-19T04:40:00;3.50;;;3.00;;
61590;SDS011;57639;52.410;-1.966;2023-06-19T04:43:07;3.30;;;2.97;;
61590;SDS011;57639;52.410;-1.966;2023-06-19T04:46:16;4.88;;;2.75;;
61590;SDS011;57639;52.410;-1.966;2023-06-19T04:52:29;3.95;;;3.10;;
61590;SDS011;57639;52.410;-1.966;2023-06-19T04:55:35;4.43;;;2.90;;
61590;SDS011;57639;52.410;-1.966;2023-06-19T04:58:41;3.45;;;2.88;;
61590;SDS011;57639;52.410;-1.966;2023-06-19T05:01:52;3.85;;;3.15;;
61590;SDS011;57639;52.410;-1.966;2023-06-19T05:04:58;2.97;;;2.67;;
61590;SDS011;57639;52.410;-1.966;2023-06-19T05:08:06;3.72;;;2.80;;
61590;SDS011;57639;52.410;-1.966;2023-06-19T05:11:12;3.53;;;3.05;;
61590;SDS011;57639;52.410;-1.966;2023-06-19T05:14:18;5.32;;;3.03;;
61590;SDS011;57639;52.410;-1.966;2023-06-19T05:17:27;4.82;;;2.80;;
61590;SDS011;57639;52.410;-1.966;2023-06-19T05:20:33;4.07;;;2.90;;
61590;SDS011;57639;52.410;-1.966;2023-06-19T05:23:40;4.15;;;2.90;;
61590;SDS011;57639;52.410;-1.966;2023-06-19T05:26:46;4.10;;;3.05;;
61590;SDS011;57639;52.410;-1.966;2023-06-19T05:29:53;3.40;;;2.80;;
61590;SDS011;57639;52.410;-1.966;2023-06-19T05:33:02;5.10;;;3.13;;
61590;SDS011;57639;52.410;-1.966;2023-06-19T05:36:09;3.90;;;2.97;;
61590;SDS011;57639;52.410;-1.966;2023-06-19T05:39:15;3.58;;;2.88;;
61590;SDS011;57639;52.410;-1.966;2023-06-19T05:42:21;3.72;;;3.00;;
61590;SDS011;57639;52.410;-1.966;2023-06-19T05:45:27;3.88;;;2.60;;
61590;SDS011;57639;52.410;-1.966;2023-06-19T05:48:36;3.90;;;2.75;;
61590;SDS011;57639;52.410;-1.966;2023-06-19T05:51:43;4.13;;;2.78;;
61590;SDS011;57639;52.410;-1.966;2023-06-19T05:54:50;4.20;;;2.80;;
61590;SDS011;57639;52.410;-1.966;2023-06-19T05:57:57;4.47;;;3.15;;
61590;SDS011;57639;52.410;-1.966;2023-06-19T06:01:03;3.90;;;2.85;;
61590;SDS011;57639;52.410;-1.966;2023-06-19T06:04:13;4.53;;;3.17;;
61590;SDS011;57639;52.410;-1.966;2023-06-19T06:07:19;3.93;;;3.20;;
61590;SDS011;57639;52.410;-1.966;2023-06-19T06:10:25;4.18;;;3.10;;
61590;SDS011;57639;52.410;-1.966;2023-06-19T06:13:32;4.78;;;2.90;;
61590;SDS011;57639;52.410;-1.966;2023-06-19T06:16:38;3.83;;;3.10;;
61590;SDS011;57639;52.410;-1.966;2023-06-19T06:19:47;3.90;;;3.10;;
61590;SDS011;57639;52.410;-1.966;2023-06-19T06:22:53;4.83;;;3.20;;
61590;SDS011;57639;52.410;-1.966;2023-06-19T06:26:02;6.43;;;3.88;;
61590;SDS011;57639;52.410;-1.966;2023-06-19T06:29:08;4.20;;;3.58;;
61590;SDS011;57639;52.410;-1.966;2023-06-19T06:32:15;4.00;;;3.22;;
61590;SDS011;57639;52.410;-1.966;2023-06-19T06:35:25;5.13;;;3.63;;
61590;SDS011;57639;52.410;-1.966;2023-06-19T06:38:31;5.00;;;3.67;;
61590;SDS011;57639;52.410;-1.966;2023-06-19T06:41:37;5.88;;;3.58;;
61590;SDS011;57639;52.410;-1.966;2023-06-19T06:44:48;4.90;;;4.15;;
61590;SDS011;57639;52.410;-1.966;2023-06-19T06:47:54;4.78;;;3.40;;
61590;SDS011;57639;52.410;-1.966;2023-06-19T06:51:03;5.55;;;3.70;;
61590;SDS011;57639;52.410;-1.966;2023-06-19T06:54:09;4.77;;;3.40;;
61590;SDS011;57639;52.410;-1.966;2023-06-19T06:57:17;4.18;;;3.15;;
61590;SDS011;57639;52.410;-1.966;2023-06-19T07:00:24;4.93;;;3.38;;
61590;SDS011;57639;52.410;-1.966;2023-06-19T07:03:30;4.85;;;3.40;;
61590;SDS011;57639;52.410;-1.966;2023-06-19T07:06:59;4.03;;;2.95;;
61590;SDS011;57639;52.410;-1.966;2023-06-19T07:13:45;6.05;;;3.45;;
61590;SDS011;57639;52.410;-1.966;2023-06-19T07:17:09;5.03;;;3.55;;
61590;SDS011;57639;52.410;-1.966;2023-06-19T07:20:32;5.93;;;3.63;;
61590;SDS011;57639;52.410;-1.966;2023-06-19T07:23:57;12.52;;;3.67;;
61590;SDS011;57639;52.410;-1.966;2023-06-19T07:27:25;5.65;;;3.60;;
61590;SDS011;57639;52.410;-1.966;2023-06-19T07:30:48;4.93;;;3.58;;
61590;SDS011;57639;52.410;-1.966;2023-06-19T07:34:01;4.15;;;3.28;;
61590;SDS011;57639;52.410;-1.966;2023-06-19T07:37:08;6.07;;;3.00;;
61590;SDS011;57639;52.410;-1.966;2023-06-19T07:40:24;5.28;;;3.25;;
61590;SDS011;57639;52.410;-1.966;2023-06-19T07:43:30;5.03;;;3.80;;
61590;SDS011;57639;52.410;-1.966;2023-06-19T07:46:36;5.85;;;3.40;;
61590;SDS011;57639;52.410;-1.966;2023-06-19T07:49:43;6.95;;;3.72;;
61590;SDS011;57639;52.410;-1.966;2023-06-19T07:52:50;6.40;;;3.55;;
61590;SDS011;57639;52.410;-1.966;2023-06-19T07:55:59;7.18;;;3.80;;
61590;SDS011;57639;52.410;-1.966;2023-06-19T07:59:05;5.47;;;3.53;;
61590;SDS011;57639;52.410;-1.966;2023-06-19T08:02:12;5.45;;;3.58;;
61590;SDS011;57639;52.410;-1.966;2023-06-19T08:05:18;7.00;;;3.03;;
61590;SDS011;57639;52.410;-1.966;2023-06-19T08:08:24;6.93;;;3.50;;
61590;SDS011;57639;52.410;-1.966;2023-06-19T08:11:34;7.30;;;3.90;;
61590;SDS011;57639;52.410;-1.966;2023-06-19T08:14:40;6.72;;;3.30;;
61590;SDS011;57639;52.410;-1.966;2023-06-19T08:17:48;5.18;;;3.40;;
61590;SDS011;57639;52.410;-1.966;2023-06-19T08:20:54;7.00;;;3.53;;
61590;SDS011;57639;52.410;-1.966;2023-06-19T08:24:01;4.57;;;3.40;;
61590;SDS011;57639;52.410;-1.966;2023-06-19T08:27:10;4.40;;;3.25;;
61590;SDS011;57639;52.410;-1.966;2023-06-19T08:30:16;5.33;;;3.10;;
61590;SDS011;57639;52.410;-1.966;2023-06-19T08:33:25;5.10;;;3.40;;
61590;SDS011;57639;52.410;-1.966;2023-06-19T08:36:34;5.55;;;3.50;;
61590;SDS011;57639;52.410;-1.966;2023-06-19T08:39:41;4.43;;;3.25;;
61590;SDS011;57639;52.410;-1.966;2023-06-19T08:42:50;4.65;;;3.13;;
61590;SDS011;57639;52.410;-1.966;2023-06-19T08:46:02;5.10;;;3.55;;
61590;SDS011;57639;52.410;-1.966;2023-06-19T08:49:14;5.45;;;3.30;;
61590;SDS011;57639;52.410;-1.966;2023-06-19T08:52:21;5.68;;;3.22;;
61590;SDS011;57639;52.410;-1.966;2023-06-19T08:55:28;5.38;;;3.38;;
61590;SDS011;57639;52.410;-1.966;2023-06-19T08:58:37;4.95;;;3.50;;
61590;SDS011;57639;52.410;-1.966;2023-06-19T09:01:46;5.32;;;3.42;;
61590;SDS011;57639;52.410;-1.966;2023-06-19T09:04:54;5.65;;;3.35;;
61590;SDS011;57639;52.410;-1.966;2023-06-19T09:08:00;4.80;;;3.17;;
61590;SDS011;57639;52.410;-1.966;2023-06-19T09:11:07;4.65;;;3.28;;
61590;SDS011;57639;52.410;-1.966;2023-06-19T09:14:16;4.15;;;3.30;;
61590;SDS011;57639;52.410;-1.966;2023-06-19T09:17:25;5.05;;;2.95;;
61590;SDS011;57639;52.410;-1.966;2023-06-19T09:20:31;4.28;;;3.35;;
61590;SDS011;57639;52.410;-1.966;2023-06-19T09:26:47;5.45;;;3.10;;
61590;SDS011;57639;52.410;-1.966;2023-06-19T09:30:06;4.85;;;2.90;;
61590;SDS011;57639;52.410;-1.966;2023-06-19T09:33:12;3.72;;;3.20;;
61590;SDS011;57639;52.410;-1.966;2023-06-19T09:36:21;5.07;;;3.30;;
61590;SDS011;57639;52.410;-1.966;2023-06-19T09:39:28;4.47;;;2.90;;
61590;SDS011;57639;52.410;-1.966;2023-06-19T09:42:38;5.03;;;3.28;;
61590;SDS011;57639;52.410;-1.966;2023-06-19T09:45:53;4.97;;;3.10;;
61590;SDS011;57639;52.410;-1.966;2023-06-19T09:49:01;4.45;;;3.20;;
61590;SDS011;57639;52.410;-1.966;2023-06-19T09:52:11;4.13;;;3.20;;
61590;SDS011;57639;52.410;-1.966;2023-06-19T09:55:17;4.63;;;3.20;;
61590;SDS011;57639;52.410;-1.966;2023-06-19T09:58:26;5.35;;;3.08;;
61590;SDS011;57639;52.410;-1.966;2023-06-19T10:01:37;4.63;;;2.92;;
61590;SDS011;57639;52.410;-1.966;2023-06-19T10:04:49;4.85;;;2.78;;
61590;SDS011;57639;52.410;-1.966;2023-06-19T10:07:56;4.20;;;3.30;;
61590;SDS011;57639;52.410;-1.966;2023-06-19T10:11:03;4.93;;;2.95;;
61590;SDS011;57639;52.410;-1.966;2023-06-19T10:14:10;3.60;;;3.03;;
61590;SDS011;57639;52.410;-1.966;2023-06-19T10:17:19;4.65;;;3.03;;
61590;SDS011;57639;52.410;-1.966;2023-06-19T10:20:27;4.43;;;3.00;;
61590;SDS011;57639;52.410;-1.966;2023-06-19T10:23:36;4.53;;;3.13;;
61590;SDS011;57639;52.410;-1.966;2023-06-19T10:26:55;5.25;;;2.97;;
61590;SDS011;57639;52.410;-1.966;2023-06-19T10:30:03;4.70;;;2.83;;
61590;SDS011;57639;52.410;-1.966;2023-06-19T10:33:12;4.07;;;2.90;;
61590;SDS011;57639;52.410;-1.966;2023-06-19T10:36:19;4.32;;;2.90;;
61590;SDS011;57639;52.410;-1.966;2023-06-19T10:39:28;4.05;;;3.00;;
61590;SDS011;57639;52.410;-1.966;2023-06-19T10:42:35;4.72;;;2.88;;
61590;SDS011;57639;52.410;-1.966;2023-06-19T10:45:42;4.78;;;2.72;;
61590;SDS011;57639;52.410;-1.966;2023-06-19T10:48:52;5.00;;;3.20;;
61590;SDS011;57639;52.410;-1.966;2023-06-19T10:52:03;4.40;;;3.20;;
61590;SDS011;57639;52.410;-1.966;2023-06-19T10:55:14;4.72;;;2.88;;
61590;SDS011;57639;52.410;-1.966;2023-06-19T10:58:20;4.20;;;2.92;;
61590;SDS011;57639;52.410;-1.966;2023-06-19T11:01:35;3.55;;;2.60;;
61590;SDS011;57639;52.410;-1.966;2023-06-19T11:04:45;6.32;;;3.25;;
61590;SDS011;57639;52.410;-1.966;2023-06-19T11:07:52;3.58;;;2.65;;
61590;SDS011;57639;52.410;-1.966;2023-06-19T11:11:03;4.13;;;2.97;;
61590;SDS011;57639;52.410;-1.966;2023-06-19T11:14:10;3.72;;;2.97;;
61590;SDS011;57639;52.410;-1.966;2023-06-19T11:17:17;5.55;;;3.00;;
61590;SDS011;57639;52.410;-1.966;2023-06-19T11:20:27;5.32;;;3.00;;
61590;SDS011;57639;52.410;-1.966;2023-06-19T11:23:34;4.22;;;2.75;;
61590;SDS011;57639;52.410;-1.966;2023-06-19T11:26:41;3.88;;;2.80;;
61590;SDS011;57639;52.410;-1.966;2023-06-19T11:29:54;4.82;;;2.97;;
61590;SDS011;57639;52.410;-1.966;2023-06-19T11:33:02;4.40;;;2.53;;
61590;SDS011;57639;52.410;-1.966;2023-06-19T11:36:15;4.68;;;2.80;;
61590;SDS011;57639;52.410;-1.966;2023-06-19T11:39:23;5.78;;;3.00;;
61590;SDS011;57639;52.410;-1.966;2023-06-19T11:42:32;4.53;;;2.75;;
61590;SDS011;57639;52.410;-1.966;2023-06-19T11:45:51;4.07;;;2.80;;
61590;SDS011;57639;52.410;-1.966;2023-06-19T11:49:08;5.53;;;2.83;;
61590;SDS011;57639;52.410;-1.966;2023-06-19T11:52:18;3.60;;;2.40;;
61590;SDS011;57639;52.410;-1.966;2023-06-19T11:55:24;3.83;;;2.58;;
61590;SDS011;57639;52.410;-1.966;2023-06-19T11:58:37;3.72;;;2.50;;
61590;SDS011;57639;52.410;-1.966;2023-06-19T12:01:43;7.63;;;2.70;;
61590;SDS011;57639;52.410;-1.966;2023-06-19T12:04:50;4.68;;;2.50;;
61590;SDS011;57639;52.410;-1.966;2023-06-19T12:07:59;4.32;;;2.42;;
61590;SDS011;57639;52.410;-1.966;2023-06-19T12:11:06;4.93;;;2.60;;
61590;SDS011;57639;52.410;-1.966;2023-06-19T12:14:13;4.78;;;2.45;;
61590;SDS011;57639;52.410;-1.966;2023-06-19T12:17:20;4.10;;;2.45;;
61590;SDS011;57639;52.410;-1.966;2023-06-19T12:20:27;2.80;;;2.45;;
61590;SDS011;57639;52.410;-1.966;2023-06-19T12:23:36;3.53;;;2.58;;
61590;SDS011;57639;52.410;-1.966;2023-06-19T12:26:42;4.53;;;2.60;;
61590;SDS011;57639;52.410;-1.966;2023-06-19T12:29:48;3.47;;;2.30;;
61590;SDS011;57639;52.410;-1.966;2023-06-19T12:32:55;4.45;;;2.75;;
61590;SDS011;57639;52.410;-1.966;2023-06-19T12:36:01;4.30;;;2.58;;
61590;SDS011;57639;52.410;-1.966;2023-06-19T12:39:10;3.55;;;2.53;;
61590;SDS011;57639;52.410;-1.966;2023-06-19T12:42:19;2.85;;;2.25;;
61590;SDS011;57639;52.410;-1.966;2023-06-19T12:45:25;3.35;;;2.47;;
61590;SDS011;57639;52.410;-1.966;2023-06-19T12:48:31;3.20;;;2.45;;
61590;SDS011;57639;52.410;-1.966;2023-06-19T12:51:38;3.38;;;2.20;;
61590;SDS011;57639;52.410;-1.966;2023-06-19T12:54:47;5.72;;;2.42;;
61590;SDS011;57639;52.410;-1.966;2023-06-19T12:57:53;2.83;;;2.20;;
61590;SDS011;57639;52.410;-1.966;2023-06-19T13:01:00;3.40;;;2.30;;
61590;SDS011;57639;52.410;-1.966;2023-06-19T13:04:06;2.70;;;2.17;;
61590;SDS011;57639;52.410;-1.966;2023-06-19T13:07:12;3.53;;;2.20;;
61590;SDS011;57639;52.410;-1.966;2023-06-19T13:10:21;3.80;;;2.25;;
61590;SDS011;57639;52.410;-1.966;2023-06-19T13:13:27;3.83;;;2.33;;
61590;SDS011;57639;52.410;-1.966;2023-06-19T13:16:33;3.78;;;1.88;;
61590;SDS011;57639;52.410;-1.966;2023-06-19T13:19:40;3.10;;;2.20;;
61590;SDS011;57639;52.410;-1.966;2023-06-19T13:22:46;3.63;;;2.20;;
61590;SDS011;57639;52.410;-1.966;2023-06-19T13:25:55;3.00;;;2.10;;
61590;SDS011;57639;52.410;-1.966;2023-06-19T13:29:01;3.27;;;2.20;;
61590;SDS011;57639;52.410;-1.966;2023-06-19T13:32:08;3.38;;;2.20;;
61590;SDS011;57639;52.410;-1.966;2023-06-19T13:35:14;2.80;;;2.10;;
61590;SDS011;57639;52.410;-1.966;2023-06-19T13:38:21;3.47;;;2.20;;
61590;SDS011;57639;52.410;-1.966;2023-06-19T13:41:30;3.92;;;2.20;;
61590;SDS011;57639;52.410;-1.966;2023-06-19T13:47:43;3.10;;;2.40;;
61590;SDS011;57639;52.410;-1.966;2023-06-19T13:50:49;3.25;;;2.10;;
61590;SDS011;57639;52.410;-1.966;2023-06-19T13:53:55;3.47;;;2.10;;
61590;SDS011;57639;52.410;-1.966;2023-06-19T13:57:05;2.97;;;2.03;;
61590;SDS011;57639;52.410;-1.966;2023-06-19T14:00:14;2.42;;;2.00;;
61590;SDS011;57639;52.410;-1.966;2023-06-19T14:03:21;2.63;;;1.95;;
61590;SDS011;57639;52.410;-1.966;2023-06-19T14:06:27;5.35;;;2.25;;
61590;SDS011;57639;52.410;-1.966;2023-06-19T14:09:33;3.30;;;2.10;;
61590;SDS011;57639;52.410;-1.966;2023-06-19T14:12:43;2.85;;;1.98;;
61590;SDS011;57639;52.410;-1.966;2023-06-19T14:15:49;3.43;;;1.90;;
61590;SDS011;57639;52.410;-1.966;2023-06-19T14:18:56;2.83;;;2.17;;
61590;SDS011;57639;52.410;-1.966;2023-06-19T14:22:08;2.85;;;2.10;;
61590;SDS011;57639;52.410;-1.966;2023-06-19T14:25:14;2.90;;;1.88;;
61590;SDS011;57639;52.410;-1.966;2023-06-19T14:28:24;3.38;;;2.00;;
61590;SDS011;57639;52.410;-1.966;2023-06-19T14:31:30;3.13;;;1.98;;
61590;SDS011;57639;52.410;-1.966;2023-06-19T14:34:42;2.60;;;1.83;;
61590;SDS011;57639;52.410;-1.966;2023-06-19T14:37:48;3.13;;;2.20;;
61590;SDS011;57639;52.410;-1.966;2023-06-19T14:40:55;2.53;;;2.00;;
61590;SDS011;57639;52.410;-1.966;2023-06-19T14:44:04;3.03;;;2.00;;
61590;SDS011;57639;52.410;-1.966;2023-06-19T14:47:11;2.72;;;1.83;;
61590;SDS011;57639;52.410;-1.966;2023-06-19T14:50:17;4.03;;;2.42;;
61590;SDS011;57639;52.410;-1.966;2023-06-19T14:53:23;2.90;;;1.90;;
61590;SDS011;57639;52.410;-1.966;2023-06-19T14:56:30;3.65;;;2.00;;
61590;SDS011;57639;52.410;-1.966;2023-06-19T14:59:39;3.10;;;2.00;;
61590;SDS011;57639;52.410;-1.966;2023-06-19T15:02:46;2.70;;;1.80;;
61590;SDS011;57639;52.410;-1.966;2023-06-19T15:05:52;2.30;;;1.73;;
61590;SDS011;57639;52.410;-1.966;2023-06-19T15:08:59;2.70;;;1.98;;
61590;SDS011;57639;52.410;-1.966;2023-06-19T15:12:05;2.83;;;1.90;;
61590;SDS011;57639;52.410;-1.966;2023-06-19T15:15:15;4.38;;;2.08;;
61590;SDS011;57639;52.410;-1.966;2023-06-19T15:18:21;4.32;;;2.28;;
61590;SDS011;57639;52.410;-1.966;2023-06-19T15:21:27;3.13;;;1.90;;
61590;SDS011;57639;52.410;-1.966;2023-06-19T15:24:34;2.80;;;1.85;;
61590;SDS011;57639;52.410;-1.966;2023-06-19T15:27:42;2.95;;;1.77;;
61590;SDS011;57639;52.410;-1.966;2023-06-19T15:30:51;3.65;;;2.22;;
61590;SDS011;57639;52.410;-1.966;2023-06-19T15:33:58;4.00;;;1.90;;
61590;SDS011;57639;52.410;-1.966;2023-06-19T15:37:04;3.00;;;2.00;;
61590;SDS011;57639;52.410;-1.966;2023-06-19T15:40:11;2.53;;;1.92;;
61590;SDS011;57639;52.410;-1.966;2023-06-19T15:43:18;2.80;;;2.00;;
61590;SDS011;57639;52.410;-1.966;2023-06-19T15:46:33;2.55;;;2.10;;
61590;SDS011;57639;52.410;-1.966;2023-06-19T15:49:39;3.50;;;1.90;;
61590;SDS011;57639;52.410;-1.966;2023-06-19T15:52:46;3.75;;;2.05;;
61590;SDS011;57639;52.410;-1.966;2023-06-19T15:55:52;3.33;;;1.90;;
61590;SDS011;57639;52.410;-1.966;2023-06-19T15:58:59;2.70;;;2.00;;
61590;SDS011;57639;52.410;-1.966;2023-06-19T16:02:08;2.78;;;1.90;;
61590;SDS011;57639;52.410;-1.966;2023-06-19T16:05:14;2.90;;;1.85;;
61590;SDS011;57639;52.410;-1.966;2023-06-19T16:08:21;3.72;;;1.90;;
61590;SDS011;57639;52.410;-1.966;2023-06-19T16:11:28;2.70;;;1.88;;
61590;SDS011;57639;52.410;-1.966;2023-06-19T16:14:35;4.28;;;1.90;;
61590;SDS011;57639;52.410;-1.966;2023-06-19T16:17:44;2.53;;;1.80;;
61590;SDS011;57639;52.410;-1.966;2023-06-19T16:20:51;1.85;;;1.52;;
61590;SDS011;57639;52.410;-1.966;2023-06-19T16:23:57;3.55;;;1.70;;
61590;SDS011;57639;52.410;-1.966;2023-06-19T16:27:03;2.60;;;1.90;;
61590;SDS011;57639;52.410;-1.966;2023-06-19T16:30:10;2.88;;;1.90;;
61590;SDS011;57639;52.410;-1.966;2023-06-19T16:33:23;2.78;;;1.80;;
61590;SDS011;57639;52.410;-1.966;2023-06-19T16:36:29;2.53;;;1.60;;
61590;SDS011;57639;52.410;-1.966;2023-06-19T16:39:39;5.15;;;2.00;;
61590;SDS011;57639;52.410;-1.966;2023-06-19T16:42:50;2.25;;;1.60;;
61590;SDS011;57639;52.410;-1.966;2023-06-19T16:46:01;4.07;;;1.92;;
61590;SDS011;57639;52.410;-1.966;2023-06-19T16:49:13;2.53;;;1.80;;
61590;SDS011;57639;52.410;-1.966;2023-06-19T16:52:19;3.20;;;1.90;;
61590;SDS011;57639;52.410;-1.966;2023-06-19T16:55:26;3.30;;;1.73;;
61590;SDS011;57639;52.410;-1.966;2023-06-19T16:58:32;2.60;;;2.03;;
61590;SDS011;57639;52.410;-1.966;2023-06-19T17:01:39;2.75;;;1.90;;
61590;SDS011;57639;52.410;-1.966;2023-06-19T17:04:51;2.42;;;1.73;;
61590;SDS011;57639;52.410;-1.966;2023-06-19T17:08:01;2.97;;;2.05;;
61590;SDS011;57639;52.410;-1.966;2023-06-19T17:11:07;2.30;;;1.80;;
61590;SDS011;57639;52.410;-1.966;2023-06-19T17:14:14;2.55;;;1.80;;
61590;SDS011;57639;52.410;-1.966;2023-06-19T17:17:20;2.13;;;1.70;;
61590;SDS011;57639;52.410;-1.966;2023-06-19T17:20:30;2.80;;;1.65;;
61590;SDS011;57639;52.410;-1.966;2023-06-19T17:23:37;2.92;;;1.60;;
61590;SDS011;57639;52.410;-1.966;2023-06-19T17:26:48;2.72;;;1.88;;
61590;SDS011;57639;52.410;-1.966;2023-06-19T17:30:04;4.53;;;1.67;;
61590;SDS011;57639;52.410;-1.966;2023-06-19T17:33:14;3.28;;;1.70;;
61590;SDS011;57639;52.410;-1.966;2023-06-19T17:36:24;2.67;;;1.83;;
61590;SDS011;57639;52.410;-1.966;2023-06-19T17:39:30;2.60;;;1.80;;
61590;SDS011;57639;52.410;-1.966;2023-06-19T17:42:39;3.30;;;1.63;;
61590;SDS011;57639;52.410;-1.966;2023-06-19T17:45:58;2.80;;;1.60;;
61590;SDS011;57639;52.410;-1.966;2023-06-19T17:49:10;2.72;;;1.63;;
61590;SDS011;57639;52.410;-1.966;2023-06-19T17:52:30;2.75;;;1.60;;
61590;SDS011;57639;52.410;-1.966;2023-06-19T17:55:53;4.28;;;1.80;;
61590;SDS011;57639;52.410;-1.966;2023-06-19T17:59:03;3.58;;;1.80;;
61590;SDS011;57639;52.410;-1.966;2023-06-19T18:02:09;3.35;;;1.83;;
61590;SDS011;57639;52.410;-1.966;2023-06-19T18:05:15;4.25;;;1.80;;
61590;SDS011;57639;52.410;-1.966;2023-06-19T18:08:24;2.60;;;1.80;;
61590;SDS011;57639;52.410;-1.966;2023-06-19T18:11:31;3.08;;;1.63;;
61590;SDS011;57639;52.410;-1.966;2023-06-19T18:14:37;2.20;;;1.60;;
61590;SDS011;57639;52.410;-1.966;2023-06-19T18:17:43;3.13;;;1.80;;
61590;SDS011;57639;52.410;-1.966;2023-06-19T18:20:53;2.92;;;1.60;;
61590;SDS011;57639;52.410;-1.966;2023-06-19T18:24:02;3.30;;;1.65;;
61590;SDS011;57639;52.410;-1.966;2023-06-19T18:27:09;2.60;;;1.63;;
61590;SDS011;57639;52.410;-1.966;2023-06-19T18:30:15;3.40;;;1.65;;
61590;SDS011;57639;52.410;-1.966;2023-06-19T18:33:23;2.25;;;1.60;;
61590;SDS011;57639;52.410;-1.966;2023-06-19T18:36:30;2.15;;;1.52;;
61590;SDS011;57639;52.410;-1.966;2023-06-19T18:39:39;2.45;;;1.38;;
61590;SDS011;57639;52.410;-1.966;2023-06-19T18:42:49;4.30;;;1.60;;
61590;SDS011;57639;52.410;-1.966;2023-06-19T18:45:58;2.87;;;1.70;;
61590;SDS011;57639;52.410;-1.966;2023-06-19T18:49:06;3.08;;;1.52;;